Time,TemperatureF,DewpointF,PressureIn,WindDirection,WindDirectionDegrees,WindSpeedMPH,WindSpeedGustMPH,Humidity,HourlyPrecipIn,Conditions,Clouds,dailyrainin,SoftwareType,DateUTC
2013-04-04 00:00:00,45.0,26.5,30.29,North,0,0.0,0.0,48,0.00,,,0.00,WUHU216HW,2013-04-04 04:00:00,
2013-04-04 00:05:00,45.0,26.5,30.29,North,0,0.0,0.0,48,0.00,,,0.00,WUHU216HW,2013-04-04 04:05:00,
2013-04-04 00:30:00,45.4,25.7,30.28,North,0,0.0,0.0,46,0.00,,,0.00,WUHU216HW,2013-04-04 04:30:00,
2013-04-04 00:35:00,45.4,25.7,30.28,North,0,0.0,0.0,46,0.00,,,0.00,WUHU216HW,2013-04-04 04:35:00,
2013-04-04 01:00:00,46.6,22.9,30.28,North,0,0.0,0.0,39,0.00,,,0.00,WUHU216HW,2013-04-04 05:00:00,
2013-04-04 01:05:00,46.6,22.9,30.28,North,0,0.0,0.0,39,0.00,,,0.00,WUHU216HW,2013-04-04 05:05:00,
2013-04-04 01:30:00,46.8,21.7,30.28,North,0,0.0,0.0,37,0.00,,,0.00,WUHU216HW,2013-04-04 05:30:00,
2013-04-04 01:35:00,46.8,21.7,30.28,North,0,0.0,0.0,37,0.00,,,0.00,WUHU216HW,2013-04-04 05:35:00,
2013-04-04 02:00:00,45.7,21.4,30.28,North,0,0.0,0.0,38,0.00,,,0.00,WUHU216HW,2013-04-04 06:00:00,
2013-04-04 02:05:00,45.7,21.4,30.28,North,0,0.0,0.0,38,0.00,,,0.00,WUHU216HW,2013-04-04 06:05:00,
2013-04-04 02:30:00,44.5,22.1,30.29,North,0,0.0,0.0,41,0.00,,,0.00,WUHU216HW,2013-04-04 06:30:00,
2013-04-04 02:35:00,44.5,22.1,30.29,North,0,0.0,0.0,41,0.00,,,0.00,WUHU216HW,2013-04-04 06:35:00,
2013-04-04 03:00:00,43.6,21.3,30.28,North,0,0.0,0.0,41,0.00,,,0.00,WUHU216HW,2013-04-04 07:00:00,
2013-04-04 03:05:00,43.6,21.3,30.28,North,0,0.0,0.0,41,0.00,,,0.00,WUHU216HW,2013-04-04 07:05:00,
2013-04-04 03:30:00,43.0,21.4,30.29,North,0,0.0,0.0,42,0.00,,,0.00,WUHU216HW,2013-04-04 07:30:00,
2013-04-04 03:35:00,43.0,21.4,30.29,North,0,0.0,0.0,42,0.00,,,0.00,WUHU216HW,2013-04-04 07:35:00,
2013-04-04 04:00:00,42.5,21.4,30.29,North,0,0.0,0.0,43,0.00,,,0.00,WUHU216HW,2013-04-04 08:00:00,
2013-04-04 04:05:00,42.5,21.4,30.29,North,0,0.0,0.0,43,0.00,,,0.00,WUHU216HW,2013-04-04 08:05:00,
2013-04-04 04:30:00,42.1,22.7,30.29,North,0,0.0,0.0,46,0.00,,,0.00,WUHU216HW,2013-04-04 08:30:00,
2013-04-04 04:35:00,42.1,22.7,30.29,North,0,0.0,0.0,46,0.00,,,0.00,WUHU216HW,2013-04-04 08:35:00,
2013-04-04 04:59:00,42.1,24.3,30.29,North,0,0.0,0.0,49,0.00,,,0.00,WUHU216HW,2013-04-04 08:59:00,
2013-04-04 05:00:00,42.1,24.3,30.29,North,0,0.0,0.0,49,0.00,,,0.00,WUHU216HW,2013-04-04 09:00:00,
2013-04-04 05:05:00,42.1,24.3,30.29,North,0,0.0,0.0,49,0.00,,,0.00,WUHU216HW,2013-04-04 09:05:00,
2013-04-04 05:30:00,41.8,24.5,30.29,North,0,0.0,0.0,50,0.00,,,0.00,WUHU216HW,2013-04-04 09:30:00,
2013-04-04 05:35:00,41.8,24.5,30.29,North,0,0.0,0.0,50,0.00,,,0.00,WUHU216HW,2013-04-04 09:35:00,
2013-04-04 06:00:00,41.6,24.3,30.29,North,0,0.0,0.0,50,0.00,,,0.00,WUHU216HW,2013-04-04 10:00:00,
2013-04-04 06:05:00,41.6,24.3,30.29,North,0,0.0,0.0,50,0.00,,,0.00,WUHU216HW,2013-04-04 10:05:00,
2013-04-04 06:30:00,41.2,24.9,30.29,North,0,0.0,0.0,52,0.00,,,0.00,WUHU216HW,2013-04-04 10:30:00,
2013-04-04 06:35:00,41.2,24.9,30.29,North,0,0.0,0.0,52,0.00,,,0.00,WUHU216HW,2013-04-04 10:35:00,
2013-04-04 06:59:00,40.9,25.4,30.31,North,0,0.0,0.0,54,0.00,,,0.00,WUHU216HW,2013-04-04 10:59:00,
2013-04-04 07:00:00,40.9,25.4,30.31,North,0,0.0,0.0,54,0.00,,,0.00,WUHU216HW,2013-04-04 11:00:00,
2013-04-04 07:05:00,40.9,25.4,30.31,North,0,0.0,0.0,54,0.00,,,0.00,WUHU216HW,2013-04-04 11:05:00,
2013-04-04 07:30:00,40.9,24.9,30.32,North,0,0.0,0.0,53,0.00,,,0.00,WUHU216HW,2013-04-04 11:30:00,
2013-04-04 07:35:00,40.9,24.9,30.32,North,0,0.0,0.0,53,0.00,,,0.00,WUHU216HW,2013-04-04 11:35:00,
2013-04-04 08:00:00,41.2,25.3,30.34,North,0,0.0,0.0,53,0.00,,,0.00,WUHU216HW,2013-04-04 12:00:00,
2013-04-04 08:05:00,41.2,25.3,30.34,North,0,0.0,0.0,53,0.00,,,0.00,WUHU216HW,2013-04-04 12:05:00,
2013-04-04 08:30:00,41.9,25.6,30.34,North,0,0.0,0.0,52,0.00,,,0.00,WUHU216HW,2013-04-04 12:30:00,
2013-04-04 08:35:00,41.9,25.6,30.34,North,0,0.0,0.0,52,0.00,,,0.00,WUHU216HW,2013-04-04 12:35:00,
2013-04-04 09:00:00,42.7,26.3,30.34,North,0,0.0,0.0,52,0.00,,,0.00,WUHU216HW,2013-04-04 13:00:00,
2013-04-04 09:05:00,42.7,26.3,30.34,North,0,0.0,0.0,52,0.00,,,0.00,WUHU216HW,2013-04-04 13:05:00,
2013-04-04 09:30:00,43.7,25.8,30.32,North,0,0.0,0.0,49,0.00,,,0.00,WUHU216HW,2013-04-04 13:30:00,
2013-04-04 09:35:00,43.7,25.8,30.32,North,0,0.0,0.0,49,0.00,,,0.00,WUHU216HW,2013-04-04 13:35:00,
2013-04-04 10:00:00,43.7,25.8,30.30,North,0,0.0,0.0,49,0.00,,,0.00,WUHU216HW,2013-04-04 14:00:00,
2013-04-04 10:05:00,43.7,25.8,30.30,North,0,0.0,0.0,49,0.00,,,0.00,WUHU216HW,2013-04-04 14:05:00,
2013-04-04 10:30:00,43.9,25.5,30.30,North,0,0.0,0.0,48,0.00,,,0.00,WUHU216HW,2013-04-04 14:30:00,
2013-04-04 10:35:00,43.9,25.5,30.30,North,0,0.0,0.0,48,0.00,,,0.00,WUHU216HW,2013-04-04 14:35:00,
2013-04-04 11:00:00,44.6,25.6,30.30,North,0,0.0,0.0,47,0.00,,,0.00,WUHU216HW,2013-04-04 15:00:00,
2013-04-04 11:05:00,44.6,25.6,30.30,North,0,0.0,0.0,47,0.00,,,0.00,WUHU216HW,2013-04-04 15:05:00,
2013-04-04 11:30:00,45.9,26.7,30.30,North,0,0.0,0.0,47,0.00,,,0.00,WUHU216HW,2013-04-04 15:30:00,
2013-04-04 11:35:00,45.9,26.7,30.30,North,0,0.0,0.0,47,0.00,,,0.00,WUHU216HW,2013-04-04 15:35:00,
2013-04-04 12:00:00,46.8,28.1,30.27,North,0,0.0,0.0,48,0.00,,,0.00,WUHU216HW,2013-04-04 16:00:00,
2013-04-04 12:05:00,46.8,28.1,30.27,North,0,0.0,0.0,48,0.00,,,0.00,WUHU216HW,2013-04-04 16:05:00,
2013-04-04 12:30:00,47.2,28.9,30.25,North,0,0.0,0.0,49,0.00,,,0.00,WUHU216HW,2013-04-04 16:30:00,
2013-04-04 12:36:00,47.2,28.9,30.25,North,0,0.0,0.0,49,0.00,,,0.00,WUHU216HW,2013-04-04 16:36:00,
2013-04-04 13:00:00,48.6,30.3,30.23,North,0,0.0,0.0,49,0.00,,,0.00,WUHU216HW,2013-04-04 17:00:00,
2013-04-04 13:05:00,48.6,30.3,30.23,North,0,0.0,0.0,49,0.00,,,0.00,WUHU216HW,2013-04-04 17:05:00,
2013-04-04 13:30:00,47.7,31.3,30.21,North,0,0.0,0.0,53,0.00,,,0.00,WUHU216HW,2013-04-04 17:30:00,
2013-04-04 13:35:00,47.7,31.3,30.21,North,0,0.0,0.0,53,0.00,,,0.00,WUHU216HW,2013-04-04 17:35:00,
2013-04-04 13:59:00,46.1,32.0,30.21,North,0,0.0,0.0,58,0.02,,,0.00,WUHU216HW,2013-04-04 17:59:00,
2013-04-04 14:00:00,46.1,32.0,30.21,North,0,0.0,0.0,58,0.02,,,0.00,WUHU216HW,2013-04-04 18:00:00,
2013-04-04 14:05:00,46.1,32.0,30.21,North,0,0.0,0.0,58,0.02,,,0.00,WUHU216HW,2013-04-04 18:05:00,
2013-04-04 14:30:00,45.2,33.3,30.21,North,0,0.0,0.0,63,0.05,,,0.02,WUHU216HW,2013-04-04 18:30:00,
2013-04-04 14:35:00,45.2,33.3,30.21,North,0,0.0,0.0,63,0.05,,,0.02,WUHU216HW,2013-04-04 18:35:00,
2013-04-04 14:59:00,44.5,32.2,30.19,North,0,0.0,0.0,62,0.06,,,0.05,WUHU216HW,2013-04-04 18:59:00,
2013-04-04 15:00:00,44.5,32.2,30.19,North,0,0.0,0.0,62,0.06,,,0.05,WUHU216HW,2013-04-04 19:00:00,
2013-04-04 15:05:00,44.5,32.2,30.19,North,0,0.0,0.0,62,0.06,,,0.05,WUHU216HW,2013-04-04 19:05:00,
2013-04-04 15:30:00,42.7,27.5,30.15,North,0,0.0,0.0,55,0.11,,,0.09,WUHU216HW,2013-04-04 19:30:00,
2013-04-04 15:35:00,42.7,27.5,30.15,North,0,0.0,0.0,55,0.11,,,0.09,WUHU216HW,2013-04-04 19:35:00,
2013-04-04 15:59:00,42.1,23.8,30.15,North,0,0.0,0.0,48,0.13,,,0.16,WUHU216HW,2013-04-04 19:59:00,
2013-04-04 16:00:00,42.1,23.8,30.15,North,0,0.0,0.0,48,0.13,,,0.16,WUHU216HW,2013-04-04 20:00:00,
2013-04-04 16:05:00,42.1,23.8,30.15,North,0,0.0,0.0,48,0.13,,,0.16,WUHU216HW,2013-04-04 20:05:00,
2013-04-04 16:30:00,41.2,21.3,30.14,North,0,0.0,0.0,45,0.09,,,0.22,WUHU216HW,2013-04-04 20:30:00,
2013-04-04 16:35:00,41.2,21.3,30.14,North,0,0.0,0.0,45,0.09,,,0.22,WUHU216HW,2013-04-04 20:35:00,
2013-04-04 17:00:00,41.0,20.1,30.14,North,0,0.0,0.0,43,0.05,,,0.26,WUHU216HW,2013-04-04 21:00:00,
2013-04-04 17:05:00,41.0,20.1,30.14,North,0,0.0,0.0,43,0.05,,,0.26,WUHU216HW,2013-04-04 21:05:00,
2013-04-04 17:30:00,40.0,14.3,30.10,North,0,0.0,0.0,35,0.02,,,0.27,WUHU216HW,2013-04-04 21:30:00,
2013-04-04 17:35:00,40.0,14.3,30.10,North,0,0.0,0.0,35,0.02,,,0.27,WUHU216HW,2013-04-04 21:35:00,
2013-04-04 18:00:00,40.0,13.7,30.10,North,0,0.0,0.0,34,0.06,,,0.28,WUHU216HW,2013-04-04 22:00:00,
2013-04-04 18:05:00,40.0,14.3,30.10,North,0,0.0,0.0,35,0.06,,,0.33,WUHU216HW,2013-04-04 22:05:00,
2013-04-04 18:10:00,40.0,14.3,30.10,North,0,0.0,0.0,35,0.06,,,0.33,WUHU216HW,2013-04-04 22:10:00,
2013-04-04 18:30:00,39.8,12.3,30.09,North,0,0.0,0.0,32,0.10,,,0.33,WUHU216HW,2013-04-04 22:30:00,
2013-04-04 18:35:00,39.8,12.3,30.09,North,0,0.0,0.0,32,0.10,,,0.33,WUHU216HW,2013-04-04 22:35:00,
2013-04-04 19:00:00,39.2,5.9,30.05,North,0,0.0,0.0,25,0.09,,,0.38,WUHU216HW,2013-04-04 23:00:00,
2013-04-04 19:05:00,39.2,5.9,30.05,North,0,0.0,0.0,25,0.09,,,0.38,WUHU216HW,2013-04-04 23:05:00,
2013-04-04 19:30:00,38.9,4.8,30.07,North,0,0.0,0.0,24,0.06,,,0.42,WUHU216HW,2013-04-04 23:30:00,
2013-04-04 19:35:00,38.9,4.8,30.07,North,0,0.0,0.0,24,0.06,,,0.42,WUHU216HW,2013-04-04 23:35:00,
2013-04-04 19:59:00,38.5,-0.5,30.04,North,0,0.0,0.0,19,0.07,,,0.45,WUHU216HW,2013-04-04 23:59:00,
2013-04-04 20:00:00,38.5,-0.5,30.04,North,0,0.0,0.0,19,0.07,,,0.45,WUHU216HW,2013-04-05 00:00:00,
2013-04-04 20:05:00,38.5,-0.5,30.04,North,0,0.0,0.0,19,0.07,,,0.45,WUHU216HW,2013-04-05 00:05:00,
2013-04-04 20:30:00,38.5,0.9,30.04,North,0,0.0,0.0,20,0.04,,,0.49,WUHU216HW,2013-04-05 00:30:00,
2013-04-04 20:35:00,38.5,0.9,30.04,North,0,0.0,0.0,20,0.04,,,0.49,WUHU216HW,2013-04-05 00:35:00,
2013-04-04 20:59:00,38.7,5.5,30.04,North,0,0.0,0.0,25,0.05,,,0.50,WUHU216HW,2013-04-05 00:59:00,
2013-04-04 21:00:00,38.7,5.5,30.04,North,0,0.0,0.0,25,0.05,,,0.50,WUHU216HW,2013-04-05 01:00:00,
2013-04-04 21:05:00,38.7,5.5,30.04,North,0,0.0,0.0,25,0.05,,,0.50,WUHU216HW,2013-04-05 01:05:00,
2013-04-04 21:30:00,38.5,-2.0,30.02,North,0,0.0,0.0,18,0.12,,,0.54,WUHU216HW,2013-04-05 01:30:00,
2013-04-04 21:35:00,38.5,-2.0,30.02,North,0,0.0,0.0,18,0.12,,,0.54,WUHU216HW,2013-04-05 01:35:00,
2013-04-04 22:00:00,38.2,-10.8,29.99,North,0,0.0,0.0,12,0.12,,,0.62,WUHU216HW,2013-04-05 02:00:00,
2013-04-04 22:05:00,38.2,-10.8,29.99,North,0,0.0,0.0,12,0.12,,,0.62,WUHU216HW,2013-04-05 02:05:00,
2013-04-04 22:30:00,38.0,-13.8,29.97,North,0,0.0,0.0,10,0.06,,,0.66,WUHU216HW,2013-04-05 02:30:00,
2013-04-04 22:35:00,38.0,-13.8,29.97,North,0,0.0,0.0,10,0.06,,,0.66,WUHU216HW,2013-04-05 02:35:00,
2013-04-04 23:00:00,38.0,-13.8,29.96,North,0,0.0,0.0,10,0.11,,,0.70,WUHU216HW,2013-04-05 03:00:00,
2013-04-04 23:05:00,38.0,-13.8,29.96,North,0,0.0,0.0,10,0.11,,,0.70,WUHU216HW,2013-04-05 03:05:00,
2013-04-04 23:30:00,38.5,-12.0,29.95,North,0,0.0,0.0,11,0.11,,,0.77,WUHU216HW,2013-04-05 03:30:00,
2013-04-04 23:35:00,38.5,-12.0,29.95,North,0,0.0,0.0,11,0.11,,,0.77,WUHU216HW,2013-04-05 03:35:00,